createdAt,value
2019-06-27T00:00:27.549Z,70.14
2019-06-27T00:02:56.031Z,70.57
2019-06-27T00:05:24.477Z,70.61
2019-06-27T00:07:52.986Z,70.74
2019-06-27T00:10:22.430Z,70.60
2019-06-27T00:12:50.852Z,70.64
2019-06-27T00:15:19.260Z,70.80
2019-06-27T00:17:47.691Z,71.09
2019-06-27T00:20:16.179Z,71.17
2019-06-27T00:22:44.956Z,71.15
2019-06-27T00:25:13.453Z,70.94
2019-06-27T00:27:41.860Z,70.96
2019-06-27T00:30:10.816Z,71.06
2019-06-27T00:32:39.234Z,71.07
2019-06-27T00:35:08.083Z,70.70
2019-06-27T00:37:36.509Z,70.90
2019-06-27T00:40:07.834Z,71.45
2019-06-27T00:42:36.243Z,71.75
2019-06-27T00:45:06.401Z,71.94
2019-06-27T00:47:34.813Z,72.31
2019-06-27T00:50:04.505Z,72.46
2019-06-27T00:52:33.080Z,72.58
2019-06-27T00:55:01.503Z,72.81
2019-06-27T00:57:29.990Z,72.96
2019-06-27T00:59:58.402Z,72.62
2019-06-27T01:02:26.826Z,72.69
2019-06-27T01:04:55.245Z,72.81
2019-06-27T01:07:23.654Z,72.82
2019-06-27T01:09:52.073Z,72.80
2019-06-27T01:12:20.551Z,72.83
2019-06-27T01:14:49.024Z,72.80
2019-06-27T01:17:17.445Z,73.02
2019-06-27T01:19:45.864Z,73.29
2019-06-27T01:22:14.859Z,73.30
2019-06-27T01:24:43.514Z,73.57
2019-06-27T01:27:11.956Z,73.57
2019-06-27T01:29:40.357Z,73.28
2019-06-27T01:32:08.758Z,73.44
2019-06-27T01:34:37.174Z,73.54
2019-06-27T01:37:05.588Z,73.24
2019-06-27T01:39:34.069Z,73.02
2019-06-27T01:42:02.489Z,73.41
2019-06-27T01:44:38.404Z,73.72
2019-06-27T01:47:07.506Z,73.84
2019-06-27T01:49:35.926Z,74.02
2019-06-27T01:52:04.602Z,74.08
2019-06-27T01:54:33.111Z,74.05
2019-06-27T01:57:01.964Z,73.68
2019-06-27T01:59:30.646Z,74.04
2019-06-27T02:01:59.307Z,73.75
2019-06-27T02:04:27.709Z,74.10
2019-06-27T02:06:56.201Z,74.32
2019-06-27T02:09:24.615Z,74.12
2019-06-27T02:11:53.033Z,74.10
2019-06-27T02:14:21.894Z,74.21
2019-06-27T02:16:50.322Z,74.68
2019-06-27T02:19:18.722Z,74.59
2019-06-27T02:21:47.143Z,74.66
2019-06-27T02:24:15.551Z,74.85
2019-06-27T02:26:44.354Z,74.74
2019-06-27T02:29:12.758Z,74.54
2019-06-27T02:31:41.172Z,75.11
2019-06-27T02:34:09.592Z,75.15
2019-06-27T02:36:38.013Z,75.33
2019-06-27T02:39:06.433Z,75.18
2019-06-27T02:41:35.006Z,75.10
2019-06-27T02:44:03.440Z,75.33
2019-06-27T02:46:31.996Z,75.30
2019-06-27T02:49:00.434Z,74.97
2019-06-27T02:51:28.845Z,75.02
2019-06-27T02:53:57.258Z,75.21
2019-06-27T02:56:25.683Z,75.31
2019-06-27T02:58:54.475Z,75.48
2019-06-27T03:01:22.908Z,75.50
2019-06-27T03:03:51.309Z,75.85
2019-06-27T03:06:19.724Z,75.76
2019-06-27T03:08:48.161Z,75.71
2019-06-27T03:11:16.570Z,75.73
2019-06-27T03:13:45.169Z,75.88
2019-06-27T03:16:13.561Z,75.73
2019-06-27T03:18:41.965Z,75.16
2019-06-27T03:21:10.386Z,75.42
2019-06-27T03:23:38.816Z,75.18
2019-06-27T03:26:07.219Z,75.51
2019-06-27T03:28:50.973Z,75.15
2019-06-27T03:31:05.783Z,75.79
2019-06-27T03:33:34.190Z,75.32
2019-06-27T03:36:02.640Z,75.62
2019-06-27T03:38:31.047Z,75.59
2019-06-27T03:40:59.451Z,75.51
2019-06-27T03:43:28.043Z,75.76
2019-06-27T03:45:56.477Z,75.88
2019-06-27T03:48:24.853Z,76.04
2019-06-27T03:50:56.304Z,75.68
2019-06-27T03:53:23.467Z,76.03
2019-06-27T03:55:51.948Z,76.37
2019-06-27T03:58:20.377Z,76.38
2019-06-27T04:00:48.779Z,76.15
2019-06-27T04:03:17.200Z,75.70
2019-06-27T04:05:45.611Z,75.20
2019-06-27T04:08:14.009Z,75.19
2019-06-27T04:10:42.441Z,74.83
2019-06-27T04:13:11.117Z,74.95
2019-06-27T04:15:39.515Z,74.98
2019-06-27T04:18:07.932Z,75.01
2019-06-27T04:20:36.334Z,75.02
2019-06-27T04:23:04.819Z,74.96
2019-06-27T04:25:33.534Z,74.53
2019-06-27T04:28:01.945Z,74.54
2019-06-27T04:30:30.375Z,73.83
2019-06-27T04:32:58.754Z,73.54
2019-06-27T04:35:27.188Z,73.05
2019-06-27T04:37:55.661Z,73.10
2019-06-27T04:40:24.068Z,72.85
2019-06-27T04:42:52.491Z,72.89
2019-06-27T04:45:20.898Z,70.93
2019-06-27T04:47:49.315Z,71.21
2019-06-27T04:50:17.794Z,71.33
2019-06-27T04:52:46.200Z,71.45
2019-06-27T04:55:14.629Z,68.87
2019-06-27T04:57:43.058Z,69.68
2019-06-27T05:00:14.874Z,69.31
2019-06-27T05:02:43.283Z,68.15
2019-06-27T05:05:11.695Z,67.97
2019-06-27T05:07:40.097Z,66.50
2019-06-27T05:10:08.688Z,65.44
2019-06-27T05:12:37.099Z,65.82
2019-06-27T05:15:08.595Z,64.27
2019-06-27T05:17:37.008Z,63.78
2019-06-27T05:20:06.245Z,63.90
2019-06-27T05:22:34.688Z,65.63
2019-06-27T05:25:03.071Z,64.61
2019-06-27T05:27:31.478Z,61.84
2019-06-27T05:30:09.272Z,61.31
2019-06-27T05:32:30.025Z,60.86
2019-06-27T05:34:58.435Z,60.60
2019-06-27T05:37:26.848Z,61.11
2019-06-27T05:39:55.257Z,60.92
2019-06-27T05:42:23.679Z,59.96
2019-06-27T05:44:52.092Z,60.42
2019-06-27T05:47:20.483Z,60.32
2019-06-27T05:49:48.892Z,61.56
2019-06-27T05:52:17.291Z,60.46
2019-06-27T05:54:45.720Z,58.90
2019-06-27T05:57:14.123Z,59.29
2019-06-27T05:59:42.531Z,58.44
2019-06-27T06:02:10.961Z,57.44
2019-06-27T06:04:39.366Z,56.75
2019-06-27T06:07:07.779Z,57.13
2019-06-27T06:09:36.185Z,57.13
2019-06-27T06:12:04.587Z,55.19
2019-06-27T06:14:33.360Z,55.08
2019-06-27T06:17:01.857Z,54.63
2019-06-27T06:19:30.230Z,54.84
2019-06-27T06:21:58.632Z,53.21
2019-06-27T06:24:27.042Z,54.42
2019-06-27T06:26:55.481Z,52.20
2019-06-27T06:29:23.880Z,52.75
2019-06-27T06:31:52.286Z,51.54
2019-06-27T06:34:20.720Z,51.42
2019-06-27T06:36:49.193Z,52.02
2019-06-27T06:39:17.598Z,50.23
2019-06-27T06:41:46.042Z,50.28
2019-06-27T06:44:14.530Z,48.87
2019-06-27T06:46:42.955Z,50.27
2019-06-27T06:49:11.357Z,49.79
2019-06-27T06:51:39.753Z,48.78
2019-06-27T06:54:08.186Z,48.27
2019-06-27T06:56:36.590Z,47.56
2019-06-27T06:59:04.998Z,47.08
2019-06-27T07:01:33.453Z,47.30
2019-06-27T07:04:01.858Z,47.97
2019-06-27T07:06:30.258Z,47.66
2019-06-27T07:08:58.690Z,47.00
2019-06-27T07:11:27.090Z,47.88
2019-06-27T07:13:55.491Z,45.91
2019-06-27T07:16:23.896Z,47.50
2019-06-27T07:18:52.303Z,45.15
2019-06-27T07:21:20.805Z,45.45
2019-06-27T07:23:49.254Z,46.14
2019-06-27T07:26:17.888Z,43.49
2019-06-27T07:28:46.306Z,44.57
2019-06-27T07:31:18.198Z,43.76
2019-06-27T07:33:44.865Z,44.27
2019-06-27T07:36:13.262Z,44.81
2019-06-27T07:38:41.664Z,46.84
2019-06-27T07:41:10.399Z,44.37
2019-06-27T07:43:38.815Z,43.97
2019-06-27T07:46:23.752Z,45.31
2019-06-27T07:48:37.353Z,43.98
2019-06-27T07:51:05.836Z,42.17
2019-06-27T07:53:34.240Z,42.17
2019-06-27T07:56:02.653Z,41.46
2019-06-27T07:58:31.121Z,42.21
2019-06-27T08:00:59.614Z,41.58
2019-06-27T08:03:28.019Z,43.23
2019-06-27T08:05:56.433Z,42.13
2019-06-27T08:08:24.846Z,42.75
2019-06-27T08:10:53.252Z,40.84
2019-06-27T08:13:21.656Z,41.99
2019-06-27T08:15:50.399Z,42.29
2019-06-27T08:18:18.793Z,42.36
2019-06-27T08:20:47.241Z,42.08
2019-06-27T08:23:15.936Z,40.33
2019-06-27T08:25:44.336Z,40.59
2019-06-27T08:28:12.742Z,41.71
2019-06-27T08:30:41.148Z,40.05
2019-06-27T08:33:09.546Z,41.56
2019-06-27T08:35:38.792Z,40.04
2019-06-27T08:38:07.196Z,39.92
2019-06-27T08:40:35.675Z,39.72
2019-06-27T08:43:04.125Z,40.06
2019-06-27T08:45:32.623Z,40.88
2019-06-27T08:48:00.974Z,38.99
2019-06-27T08:50:29.374Z,39.18
2019-06-27T08:53:01.147Z,40.34
2019-06-27T08:55:27.988Z,38.81
2019-06-27T08:57:56.402Z,40.94
2019-06-27T09:00:24.810Z,38.46
2019-06-27T09:02:53.237Z,38.26
2019-06-27T09:05:21.629Z,38.36
2019-06-27T09:07:50.033Z,38.26
2019-06-27T09:10:19.720Z,38.02
2019-06-27T09:12:48.109Z,37.32
2019-06-27T09:15:16.946Z,37.69
2019-06-27T09:17:46.237Z,37.01
2019-06-27T09:20:15.787Z,38.57
2019-06-27T09:22:44.191Z,37.10
2019-06-27T09:25:13.935Z,36.04
2019-06-27T09:27:42.341Z,38.14
2019-06-27T09:30:11.632Z,37.15
2019-06-27T09:32:40.034Z,35.75
2019-06-27T09:35:09.177Z,36.55
2019-06-27T09:37:37.654Z,34.69
2019-06-27T09:40:09.641Z,35.10
2019-06-27T09:42:38.075Z,35.93
2019-06-27T09:45:07.314Z,34.56
2019-06-27T09:47:35.804Z,34.25
2019-06-27T09:50:06.249Z,33.77
2019-06-27T09:52:34.649Z,36.52
2019-06-27T09:55:03.449Z,36.28
2019-06-27T09:57:31.856Z,35.73
2019-06-27T10:00:00.883Z,35.21
2019-06-27T10:02:41.004Z,35.27
2019-06-27T10:04:59.391Z,38.28
2019-06-27T10:07:28.625Z,34.22
2019-06-27T10:09:57.040Z,38.09
2019-06-27T10:12:37.987Z,36.79
2019-06-27T10:14:55.846Z,34.13
2019-06-27T10:17:24.258Z,33.46
2019-06-27T10:19:52.668Z,34.86
2019-06-27T10:22:21.153Z,34.53
2019-06-27T10:24:49.923Z,34.44
2019-06-27T10:27:18.351Z,35.48
2019-06-27T10:29:46.776Z,35.09
2019-06-27T10:32:15.199Z,34.75
2019-06-27T10:34:43.603Z,34.30
2019-06-27T10:37:12.005Z,34.85
2019-06-27T10:39:40.413Z,32.74
2019-06-27T10:42:08.815Z,35.33
2019-06-27T10:44:37.228Z,32.29
2019-06-27T10:47:05.635Z,31.83
2019-06-27T10:49:34.025Z,32.50
2019-06-27T10:52:02.469Z,32.66
2019-06-27T10:54:30.882Z,33.47
2019-06-27T10:56:59.348Z,33.69
2019-06-27T10:59:28.201Z,34.80
2019-06-27T11:01:56.603Z,33.69
2019-06-27T11:04:25.016Z,34.79
2019-06-27T11:06:53.715Z,32.68
2019-06-27T11:09:22.125Z,33.38
2019-06-27T11:11:50.585Z,32.61
2019-06-27T11:14:19.436Z,32.49
2019-06-27T11:16:47.870Z,31.84
2019-06-27T11:19:16.295Z,32.43
2019-06-27T11:21:44.755Z,32.87
2019-06-27T11:24:13.447Z,32.39
2019-06-27T11:26:41.857Z,32.21
2019-06-27T11:29:10.251Z,30.88
2019-06-27T11:31:38.676Z,31.47
2019-06-27T11:34:07.073Z,31.85
2019-06-27T11:36:35.476Z,30.70
2019-06-27T11:39:05.399Z,31.65
2019-06-27T11:41:33.802Z,30.68
2019-06-27T11:44:02.230Z,30.19
2019-06-27T11:46:30.816Z,31.07
2019-06-27T11:48:59.538Z,33.11
2019-06-27T11:51:27.969Z,32.17
2019-06-27T11:53:56.373Z,30.44
2019-06-27T11:56:25.001Z,31.32
2019-06-27T11:58:53.370Z,30.82
2019-06-27T12:01:21.774Z,33.01
2019-06-27T12:03:50.220Z,31.33
2019-06-27T12:06:18.626Z,30.85
2019-06-27T12:08:47.011Z,30.30
2019-06-27T12:11:15.415Z,32.26
2019-06-27T12:13:43.828Z,32.38
2019-06-27T12:16:12.235Z,30.26
2019-06-27T12:18:40.678Z,29.72
2019-06-27T12:21:09.077Z,31.80
2019-06-27T12:23:37.518Z,31.38
2019-06-27T12:26:05.924Z,30.05
2019-06-27T12:28:34.329Z,30.93
2019-06-27T12:31:10.272Z,31.66
2019-06-27T12:33:32.893Z,33.05
2019-06-27T12:36:01.290Z,32.81
2019-06-27T12:38:29.719Z,32.70
2019-06-27T12:40:58.191Z,29.86
2019-06-27T12:43:26.629Z,31.05
2019-06-27T12:45:55.036Z,29.98
2019-06-27T12:48:23.433Z,29.71
2019-06-27T12:50:51.848Z,29.19
2019-06-27T12:53:20.333Z,30.79
2019-06-27T12:55:49.476Z,30.10
2019-06-27T12:58:17.889Z,30.82
2019-06-27T13:00:46.290Z,31.60
2019-06-27T13:03:14.702Z,30.29
2019-06-27T13:05:43.115Z,30.68
2019-06-27T13:08:11.546Z,30.54
2019-06-27T13:10:39.951Z,33.48
2019-06-27T13:13:08.374Z,31.19
2019-06-27T13:15:36.755Z,30.65
2019-06-27T13:18:05.167Z,28.24
2019-06-27T13:20:33.821Z,27.54
2019-06-27T13:23:02.230Z,28.19
2019-06-27T13:25:34.034Z,27.78
2019-06-27T13:28:00.773Z,28.74
2019-06-27T13:30:29.174Z,27.39
2019-06-27T13:32:57.941Z,27.46
2019-06-27T13:35:26.347Z,29.25
2019-06-27T13:37:54.748Z,27.99
2019-06-27T13:40:23.227Z,28.76
2019-06-27T13:42:55.296Z,26.74
2019-06-27T13:45:21.867Z,27.00
2019-06-27T13:47:50.293Z,25.00
2019-06-27T13:50:19.545Z,25.93
2019-06-27T13:52:48.428Z,26.73
2019-06-27T13:55:16.969Z,24.71
2019-06-27T13:57:45.396Z,26.09
2019-06-27T14:00:14.642Z,23.92
2019-06-27T14:02:43.039Z,23.75
2019-06-27T14:05:11.525Z,24.21
2019-06-27T14:07:39.994Z,24.37
2019-06-27T14:10:09.067Z,23.87
2019-06-27T14:12:37.560Z,25.31
2019-06-27T14:15:08.308Z,24.25
2019-06-27T14:17:36.729Z,24.73
2019-06-27T14:20:07.542Z,26.62
2019-06-27T14:22:36.014Z,24.83
2019-06-27T14:25:06.084Z,24.64
2019-06-27T14:27:34.487Z,23.98
2019-06-27T14:30:02.965Z,24.08
2019-06-27T14:32:31.382Z,23.42
2019-06-27T14:35:14.893Z,23.04
2019-06-27T14:37:30.492Z,21.47
2019-06-27T14:39:58.898Z,21.52
2019-06-27T14:42:27.277Z,22.53
2019-06-27T14:44:55.744Z,23.13
2019-06-27T14:47:24.133Z,22.17
2019-06-27T14:49:52.546Z,23.17
2019-06-27T14:52:20.981Z,22.44
2019-06-27T14:54:49.392Z,21.00
2019-06-27T14:57:17.799Z,20.42
2019-06-27T14:59:46.222Z,22.13
2019-06-27T15:02:14.628Z,21.55
2019-06-27T15:04:43.031Z,19.54
2019-06-27T15:07:11.462Z,21.19
2019-06-27T15:09:39.865Z,24.43
2019-06-27T15:12:08.263Z,22.85
2019-06-27T15:14:36.673Z,23.32
2019-06-27T15:17:05.088Z,23.64
2019-06-27T15:19:33.486Z,23.88
2019-06-27T15:22:01.888Z,24.02
2019-06-27T15:24:30.573Z,23.83
2019-06-27T15:26:58.982Z,26.22
2019-06-27T15:29:27.410Z,25.60
2019-06-27T15:31:55.813Z,26.02
2019-06-27T15:34:24.238Z,24.72
2019-06-27T15:36:52.636Z,25.78
2019-06-27T15:39:21.407Z,25.00
2019-06-27T15:41:49.829Z,24.32
2019-06-27T15:44:20.639Z,23.89
2019-06-27T15:46:48.376Z,23.60
2019-06-27T15:49:16.779Z,24.12
2019-06-27T15:51:45.191Z,24.20
2019-06-27T15:54:13.636Z,23.82
2019-06-27T15:56:42.020Z,24.33
2019-06-27T15:59:10.430Z,23.52
2019-06-27T16:01:38.841Z,23.42
2019-06-27T16:04:07.298Z,23.88
2019-06-27T16:06:35.664Z,23.69
2019-06-27T16:09:05.103Z,25.04
2019-06-27T16:11:33.505Z,24.14
2019-06-27T16:14:01.995Z,24.66
2019-06-27T16:16:30.411Z,25.52
2019-06-27T16:18:58.837Z,23.80
2019-06-27T16:21:27.234Z,23.22
2019-06-27T16:23:55.641Z,24.21
2019-06-27T16:26:24.047Z,24.18
2019-06-27T16:28:52.484Z,23.54
2019-06-27T16:31:20.889Z,23.91
2019-06-27T16:33:49.289Z,24.24
2019-06-27T16:36:25.294Z,24.24
2019-06-27T16:38:47.835Z,24.29
2019-06-27T16:41:16.237Z,24.81
2019-06-27T16:43:44.721Z,25.01
2019-06-27T16:46:13.132Z,23.55
2019-06-27T16:48:41.517Z,24.18
2019-06-27T16:51:09.992Z,25.73
2019-06-27T16:53:38.390Z,24.74
2019-06-27T16:56:06.826Z,24.63
2019-06-27T16:58:35.223Z,24.17
2019-06-27T17:01:03.656Z,23.65
2019-06-27T17:03:32.048Z,24.77
2019-06-27T17:06:00.460Z,25.74
2019-06-27T17:08:28.895Z,23.57
2019-06-27T17:10:58.787Z,23.87
2019-06-27T17:13:27.368Z,24.78
2019-06-27T17:15:55.773Z,24.62
2019-06-27T17:18:24.172Z,24.74
2019-06-27T17:20:52.592Z,24.38
2019-06-27T17:23:20.996Z,24.99
2019-06-27T17:25:49.412Z,24.90
2019-06-27T17:28:17.883Z,24.28
2019-06-27T17:30:46.281Z,24.81
2019-06-27T17:33:14.777Z,25.11
2019-06-27T17:35:43.440Z,25.27
2019-06-27T17:38:11.831Z,25.24
2019-06-27T17:40:40.237Z,25.44
2019-06-27T17:43:08.631Z,26.65
2019-06-27T17:45:37.137Z,28.44
2019-06-27T17:48:05.543Z,27.23
2019-06-27T17:50:33.943Z,26.02
2019-06-27T17:53:02.401Z,26.37
2019-06-27T17:55:30.782Z,26.32
2019-06-27T17:57:59.184Z,27.06
2019-06-27T18:00:27.585Z,26.81
2019-06-27T18:02:55.988Z,27.28
2019-06-27T18:05:24.415Z,26.73
2019-06-27T18:07:52.819Z,26.63
2019-06-27T18:10:21.484Z,27.17
2019-06-27T18:12:49.898Z,28.00
2019-06-27T18:15:18.805Z,27.71
2019-06-27T18:17:47.244Z,27.15
2019-06-27T18:20:16.086Z,27.51
2019-06-27T18:22:44.494Z,28.16
2019-06-27T18:25:12.888Z,28.07
2019-06-27T18:27:41.290Z,27.92
2019-06-27T18:30:10.160Z,27.62
2019-06-27T18:32:38.559Z,28.83
2019-06-27T18:35:07.254Z,27.20
2019-06-27T18:37:35.684Z,27.31
2019-06-27T18:40:05.432Z,27.71
2019-06-27T18:42:33.817Z,27.18
2019-06-27T18:45:02.582Z,27.10
2019-06-27T18:47:30.984Z,27.88
2019-06-27T18:49:59.404Z,27.48
2019-06-27T18:52:27.852Z,27.80
2019-06-27T18:54:56.358Z,27.77
2019-06-27T18:57:24.761Z,27.23
2019-06-27T18:59:53.878Z,28.31
2019-06-27T19:02:22.383Z,28.07
2019-06-27T19:04:50.786Z,28.43
2019-06-27T19:07:19.190Z,28.46
2019-06-27T19:09:47.601Z,29.02
2019-06-27T19:12:19.106Z,29.51
2019-06-27T19:14:46.136Z,29.70
2019-06-27T19:17:14.553Z,30.08
2019-06-27T19:19:44.589Z,31.21
2019-06-27T19:22:31.110Z,33.32
2019-06-27T19:25:01.191Z,31.36
2019-06-27T19:27:29.591Z,32.15
2019-06-27T19:29:58.563Z,33.27
2019-06-27T19:32:26.933Z,35.66
2019-06-27T19:34:55.378Z,33.26
2019-06-27T19:37:23.739Z,34.94
2019-06-27T19:39:52.174Z,34.16
2019-06-27T19:42:20.590Z,34.58
2019-06-27T19:44:48.992Z,34.77
2019-06-27T19:47:17.400Z,34.82
2019-06-27T19:49:45.795Z,36.41
2019-06-27T19:52:14.226Z,36.81
2019-06-27T19:54:42.641Z,38.72
2019-06-27T19:57:11.043Z,38.29
2019-06-27T19:59:39.452Z,36.88
2019-06-27T20:02:08.330Z,38.02
2019-06-27T20:04:36.775Z,39.44
2019-06-27T20:07:05.243Z,39.01
2019-06-27T20:09:33.651Z,38.73
2019-06-27T20:12:02.203Z,39.22
2019-06-27T20:14:30.677Z,39.45
2019-06-27T20:16:59.093Z,39.21
2019-06-27T20:19:27.495Z,39.90
2019-06-27T20:21:55.910Z,39.90
2019-06-27T20:24:24.390Z,39.80
2019-06-27T20:26:52.785Z,40.09
2019-06-27T20:29:21.217Z,40.54
2019-06-27T20:31:49.621Z,40.34
2019-06-27T20:34:18.029Z,41.64
2019-06-27T20:36:46.860Z,41.19
2019-06-27T20:39:15.263Z,42.53
2019-06-27T20:41:43.669Z,41.81
2019-06-27T20:44:12.075Z,42.67
2019-06-27T20:46:40.490Z,42.33
2019-06-27T20:49:08.986Z,41.98
2019-06-27T20:51:37.386Z,43.51
2019-06-27T20:54:05.784Z,43.94
2019-06-27T20:56:34.203Z,44.42
2019-06-27T20:59:02.608Z,43.88
2019-06-27T21:01:31.858Z,43.41
2019-06-27T21:04:00.498Z,43.87
2019-06-27T21:06:28.864Z,44.71
2019-06-27T21:08:57.260Z,46.06
2019-06-27T21:11:25.666Z,47.57
2019-06-27T21:13:54.085Z,49.11
2019-06-27T21:16:22.483Z,48.39
2019-06-27T21:18:52.347Z,48.26
2019-06-27T21:21:21.029Z,47.31
2019-06-27T21:23:49.447Z,46.74
2019-06-27T21:26:17.852Z,48.11
2019-06-27T21:28:46.253Z,46.18
2019-06-27T21:31:14.686Z,49.14
2019-06-27T21:33:43.101Z,51.79
2019-06-27T21:36:11.511Z,48.46
2019-06-27T21:38:39.910Z,48.12
2019-06-27T21:41:08.317Z,48.08
2019-06-27T21:43:36.716Z,48.23
2019-06-27T21:46:05.324Z,48.50
2019-06-27T21:48:33.720Z,50.69
2019-06-27T21:51:02.130Z,50.30
2019-06-27T21:53:30.540Z,51.20
2019-06-27T21:55:58.953Z,51.59
2019-06-27T21:58:27.367Z,52.88
2019-06-27T22:00:55.886Z,52.43
2019-06-27T22:03:24.351Z,51.94
2019-06-27T22:05:52.757Z,50.95
2019-06-27T22:08:21.199Z,50.79
2019-06-27T22:10:49.611Z,51.14
2019-06-27T22:13:18.017Z,50.73
2019-06-27T22:15:46.451Z,51.54
2019-06-27T22:18:14.871Z,51.48
2019-06-27T22:20:43.260Z,51.77
2019-06-27T22:23:11.673Z,51.68
2019-06-27T22:25:41.114Z,53.50
2019-06-27T22:28:09.786Z,53.37
2019-06-27T22:30:38.204Z,53.05
2019-06-27T22:33:06.571Z,54.04
2019-06-27T22:35:35.061Z,53.73
2019-06-27T22:38:22.287Z,56.53
2019-06-27T22:41:08.447Z,55.11
2019-06-27T22:43:54.962Z,55.94
2019-06-27T22:46:41.384Z,57.38
2019-06-27T22:49:09.568Z,59.00
2019-06-27T22:51:58.019Z,59.94
2019-06-27T22:54:28.075Z,59.52
2019-06-27T22:56:56.493Z,58.60
2019-06-27T22:59:24.898Z,58.15
2019-06-27T23:01:53.311Z,58.36
2019-06-27T23:04:21.719Z,58.76
2019-06-27T23:06:50.120Z,58.26
2019-06-27T23:09:18.526Z,58.32
2019-06-27T23:11:46.935Z,58.70
2019-06-27T23:14:15.334Z,59.31
2019-06-27T23:16:43.754Z,59.78
2019-06-27T23:19:12.155Z,59.44
2019-06-27T23:21:40.820Z,61.73
2019-06-27T23:24:09.237Z,61.47
2019-06-27T23:26:37.647Z,60.13
2019-06-27T23:29:06.072Z,60.59
2019-06-27T23:31:34.474Z,60.97
2019-06-27T23:34:02.882Z,61.68
2019-06-27T23:36:31.303Z,62.45
2019-06-27T23:38:59.691Z,61.34
2019-06-27T23:41:28.110Z,62.01
2019-06-27T23:43:56.510Z,63.19
2019-06-27T23:46:43.353Z,63.60
2019-06-27T23:49:12.401Z,63.36
2019-06-27T23:51:41.004Z,62.26
2019-06-27T23:54:10.459Z,62.21
2019-06-27T23:56:38.862Z,63.13
2019-06-27T23:59:07.268Z,62.48
